ZSMUL FZAA-FZEA
Flight info
| Callsign | ZSMUL |
|---|---|
| Flight time | N/A |
| Altitude | 13000 |
| Route | GUSAR4A GUSAR V30 EMVOT OVRI1C |
| Aircraft | DC6/M-SDFGRWY/S |
Departure
| Time | N/A |
|---|---|
| Airport | Ndjili International Airport (FZAA) |
Arrival
| Time | 2026-05-06 16:17 |
|---|---|
| Airport | Mbandaka Airport (FZEA) |
| Time | Latitude | Longitude | Altitude | Speed | Heading |
|---|---|---|---|---|---|
| 2026-05-06 15:24 | -2.05373 | 16.93478 | 6364 ft | 223 kts | 33° |
| 2026-05-06 15:25 | -2.04070 | 16.94314 | 6371 ft | 223 kts | 33° |
| 2026-05-06 15:25 | -2.02768 | 16.95150 | 6362 ft | 222 kts | 33° |
| 2026-05-06 15:25 | -2.01466 | 16.95985 | 6363 ft | 222 kts | 33° |
| 2026-05-06 15:25 | -2.00168 | 16.96819 | 6364 ft | 222 kts | 33° |
| 2026-05-06 15:26 | -1.98888 | 16.97640 | 6369 ft | 222 kts | 34° |
| 2026-05-06 15:26 | -1.97590 | 16.98474 | 6365 ft | 222 kts | 33° |
| 2026-05-06 15:26 | -1.96289 | 16.99308 | 6363 ft | 222 kts | 33° |
| 2026-05-06 15:26 | -1.94988 | 17.00144 | 6363 ft | 222 kts | 34° |
| 2026-05-06 15:27 | -1.93688 | 17.00978 | 6364 ft | 222 kts | 34° |
| 2026-05-06 15:27 | -1.92392 | 17.01810 | 6362 ft | 221 kts | 33° |
| 2026-05-06 15:27 | -1.91094 | 17.02644 | 6363 ft | 221 kts | 33° |
| 2026-05-06 15:27 | -1.89807 | 17.03470 | 6357 ft | 218 kts | 33° |
| 2026-05-06 15:28 | -1.88547 | 17.04279 | 6484 ft | 215 kts | 34° |
| 2026-05-06 15:28 | -1.87309 | 17.05071 | 6718 ft | 209 kts | 34° |
| 2026-05-06 15:28 | -1.86094 | 17.05850 | 6938 ft | 206 kts | 34° |
| 2026-05-06 15:28 | -1.84898 | 17.06620 | 7138 ft | 203 kts | 34° |
| 2026-05-06 15:29 | -1.83715 | 17.07380 | 7322 ft | 201 kts | 34° |
| 2026-05-06 15:29 | -1.82541 | 17.08131 | 7486 ft | 199 kts | 34° |
| 2026-05-06 15:29 | -1.81378 | 17.08878 | 7651 ft | 198 kts | 34° |
| 2026-05-06 15:29 | -1.80226 | 17.09618 | 7810 ft | 196 kts | 34° |
| 2026-05-06 15:30 | -1.79078 | 17.10354 | 7974 ft | 195 kts | 34° |
| 2026-05-06 15:30 | -1.77954 | 17.11075 | 8109 ft | 194 kts | 35° |
| 2026-05-06 15:30 | -1.76820 | 17.11804 | 8264 ft | 194 kts | 35° |
| 2026-05-06 15:30 | -1.75683 | 17.12534 | 8420 ft | 194 kts | 35° |
| 2026-05-06 15:31 | -1.74547 | 17.13262 | 8585 ft | 194 kts | 35° |
| 2026-05-06 15:31 | -1.73412 | 17.13991 | 8749 ft | 194 kts | 35° |
| 2026-05-06 15:31 | -1.72278 | 17.14718 | 8916 ft | 194 kts | 35° |
| 2026-05-06 15:32 | -1.70011 | 17.16174 | 9237 ft | 194 kts | 35° |
| 2026-05-06 15:32 | -1.68878 | 17.16899 | 9398 ft | 193 kts | 35° |
| 2026-05-06 15:32 | -1.67764 | 17.17615 | 9555 ft | 193 kts | 35° |
| 2026-05-06 15:32 | -1.66637 | 17.18338 | 9715 ft | 192 kts | 35° |
| 2026-05-06 15:33 | -1.65514 | 17.19058 | 9855 ft | 192 kts | 35° |
| 2026-05-06 15:33 | -1.64388 | 17.19781 | 9995 ft | 192 kts | 35° |
| 2026-05-06 15:33 | -1.63261 | 17.20503 | 10140 ft | 192 kts | 35° |
| 2026-05-06 15:33 | -1.62136 | 17.21227 | 10284 ft | 192 kts | 35° |
| 2026-05-06 15:34 | -1.61010 | 17.21949 | 10438 ft | 192 kts | 35° |
| 2026-05-06 15:34 | -1.59884 | 17.22671 | 10572 ft | 192 kts | 35° |
| 2026-05-06 15:34 | -1.58754 | 17.23394 | 10706 ft | 193 kts | 35° |
| 2026-05-06 15:34 | -1.57639 | 17.24111 | 10856 ft | 193 kts | 35° |
| 2026-05-06 15:35 | -1.56506 | 17.24838 | 11005 ft | 194 kts | 35° |
| 2026-05-06 15:35 | -1.55372 | 17.25566 | 11141 ft | 194 kts | 35° |
| 2026-05-06 15:35 | -1.54237 | 17.26294 | 11276 ft | 194 kts | 35° |
| 2026-05-06 15:35 | -1.53103 | 17.27021 | 11410 ft | 194 kts | 34° |
| 2026-05-06 15:36 | -1.51967 | 17.27748 | 11544 ft | 194 kts | 35° |
| 2026-05-06 15:36 | -1.50832 | 17.28478 | 11675 ft | 194 kts | 35° |
| 2026-05-06 15:36 | -1.49697 | 17.29206 | 11802 ft | 194 kts | 35° |
| 2026-05-06 15:36 | -1.48577 | 17.29926 | 11935 ft | 194 kts | 35° |
| 2026-05-06 15:37 | -1.47435 | 17.30658 | 12070 ft | 195 kts | 35° |
| 2026-05-06 15:37 | -1.46291 | 17.31391 | 12203 ft | 196 kts | 34° |
| 2026-05-06 15:37 | -1.45144 | 17.32127 | 12349 ft | 196 kts | 34° |
| 2026-05-06 15:37 | -1.43994 | 17.32864 | 12476 ft | 196 kts | 35° |
| 2026-05-06 15:38 | -1.42844 | 17.33603 | 12609 ft | 197 kts | 34° |
| 2026-05-06 15:38 | -1.41693 | 17.34341 | 12741 ft | 197 kts | 35° |
| 2026-05-06 15:38 | -1.40538 | 17.35082 | 12805 ft | 200 kts | 35° |
| 2026-05-06 15:38 | -1.39379 | 17.35826 | 12792 ft | 200 kts | 34° |
| 2026-05-06 15:39 | -1.38205 | 17.36579 | 12795 ft | 201 kts | 34° |
| 2026-05-06 15:39 | -1.37027 | 17.37332 | 12793 ft | 201 kts | 35° |
| 2026-05-06 15:39 | -1.35846 | 17.38091 | 12798 ft | 202 kts | 35° |
| 2026-05-06 15:39 | -1.34661 | 17.38851 | 12805 ft | 203 kts | 34° |
| 2026-05-06 15:40 | -1.33474 | 17.39613 | 12807 ft | 203 kts | 34° |
| 2026-05-06 15:40 | -1.32282 | 17.40376 | 12808 ft | 204 kts | 35° |
| 2026-05-06 15:40 | -1.31087 | 17.41144 | 12807 ft | 204 kts | 34° |
| 2026-05-06 15:40 | -1.29890 | 17.41911 | 12801 ft | 205 kts | 34° |
| 2026-05-06 15:41 | -1.28690 | 17.42682 | 12805 ft | 205 kts | 34° |
| 2026-05-06 15:41 | -1.27503 | 17.43442 | 12804 ft | 206 kts | 35° |
| 2026-05-06 15:41 | -1.26299 | 17.44215 | 12805 ft | 206 kts | 34° |
| 2026-05-06 15:41 | -1.25091 | 17.44988 | 12797 ft | 206 kts | 34° |
| 2026-05-06 15:42 | -1.23883 | 17.45765 | 12806 ft | 207 kts | 34° |
| 2026-05-06 15:42 | -1.22670 | 17.46542 | 12804 ft | 207 kts | 34° |
| 2026-05-06 15:42 | -1.21456 | 17.47321 | 12806 ft | 208 kts | 34° |
| 2026-05-06 15:42 | -1.20240 | 17.48100 | 12804 ft | 208 kts | 34° |
| 2026-05-06 15:43 | -1.19022 | 17.48883 | 12806 ft | 208 kts | 34° |
| 2026-05-06 15:43 | -1.17802 | 17.49663 | 12805 ft | 209 kts | 34° |
| 2026-05-06 15:43 | -1.16597 | 17.50437 | 12806 ft | 209 kts | 34° |
| 2026-05-06 15:43 | -1.15374 | 17.51221 | 12799 ft | 209 kts | 34° |
| 2026-05-06 15:44 | -1.14149 | 17.52007 | 12799 ft | 209 kts | 34° |
| 2026-05-06 15:44 | -1.12923 | 17.52792 | 12800 ft | 210 kts | 35° |
| 2026-05-06 15:44 | -1.11696 | 17.53580 | 12803 ft | 210 kts | 34° |
| 2026-05-06 15:44 | -1.10468 | 17.54368 | 12804 ft | 210 kts | 35° |
| 2026-05-06 15:45 | -1.09240 | 17.55155 | 12805 ft | 210 kts | 34° |
| 2026-05-06 15:45 | -1.08011 | 17.55943 | 12803 ft | 210 kts | 34° |
| 2026-05-06 15:45 | -1.06782 | 17.56730 | 12803 ft | 210 kts | 34° |
| 2026-05-06 15:45 | -1.05569 | 17.57509 | 12804 ft | 210 kts | 35° |
| 2026-05-06 15:46 | -1.04338 | 17.58298 | 12798 ft | 210 kts | 34° |
| 2026-05-06 15:46 | -1.03107 | 17.59088 | 12801 ft | 210 kts | 35° |
| 2026-05-06 15:46 | -1.01875 | 17.59877 | 12803 ft | 210 kts | 34° |
| 2026-05-06 15:46 | -1.00644 | 17.60667 | 12799 ft | 211 kts | 35° |
| 2026-05-06 15:47 | -0.99411 | 17.61458 | 12803 ft | 211 kts | 34° |
| 2026-05-06 15:47 | -0.98177 | 17.62249 | 12802 ft | 211 kts | 34° |
| 2026-05-06 15:47 | -0.96944 | 17.63040 | 12804 ft | 211 kts | 34° |
| 2026-05-06 15:47 | -0.95710 | 17.63831 | 12804 ft | 211 kts | 34° |
| 2026-05-06 15:48 | -0.94494 | 17.64610 | 12802 ft | 211 kts | 35° |
| 2026-05-06 15:48 | -0.93262 | 17.65401 | 12804 ft | 210 kts | 34° |
| 2026-05-06 15:48 | -0.92028 | 17.66191 | 12802 ft | 210 kts | 34° |
| 2026-05-06 15:48 | -0.90797 | 17.66981 | 12799 ft | 210 kts | 35° |
| 2026-05-06 15:49 | -0.89564 | 17.67770 | 12800 ft | 211 kts | 35° |
| 2026-05-06 15:49 | -0.88331 | 17.68563 | 12802 ft | 211 kts | 35° |
| 2026-05-06 15:49 | -0.87096 | 17.69354 | 12798 ft | 211 kts | 34° |
| 2026-05-06 15:49 | -0.85861 | 17.70146 | 12796 ft | 211 kts | 34° |
| 2026-05-06 15:50 | -0.84624 | 17.70938 | 12796 ft | 211 kts | 34° |
| 2026-05-06 15:50 | -0.83405 | 17.71720 | 12800 ft | 211 kts | 35° |
| 2026-05-06 15:50 | -0.82170 | 17.72512 | 12798 ft | 211 kts | 34° |
| 2026-05-06 15:50 | -0.80934 | 17.73304 | 12800 ft | 211 kts | 35° |
| 2026-05-06 15:51 | -0.79699 | 17.74097 | 12802 ft | 211 kts | 34° |
| 2026-05-06 15:51 | -0.78463 | 17.74889 | 12801 ft | 211 kts | 35° |
| 2026-05-06 15:51 | -0.77227 | 17.75681 | 12802 ft | 211 kts | 35° |
| 2026-05-06 15:51 | -0.75993 | 17.76473 | 12803 ft | 211 kts | 35° |
| 2026-05-06 15:52 | -0.74759 | 17.77264 | 12793 ft | 211 kts | 35° |
| 2026-05-06 15:52 | -0.73523 | 17.78056 | 12796 ft | 211 kts | 35° |
| 2026-05-06 15:52 | -0.72290 | 17.78846 | 12800 ft | 211 kts | 35° |
| 2026-05-06 15:52 | -0.71072 | 17.79627 | 12803 ft | 211 kts | 35° |
| 2026-05-06 15:53 | -0.69838 | 17.80418 | 12800 ft | 211 kts | 35° |
| 2026-05-06 15:53 | -0.68604 | 17.81211 | 12799 ft | 211 kts | 35° |
| 2026-05-06 15:53 | -0.67367 | 17.82002 | 12796 ft | 211 kts | 35° |
| 2026-05-06 15:53 | -0.66130 | 17.82796 | 12797 ft | 211 kts | 35° |
| 2026-05-06 15:54 | -0.64867 | 17.83547 | 12782 ft | 212 kts | 27° |
| 2026-05-06 15:54 | -0.63498 | 17.84096 | 12792 ft | 212 kts | 24° |
| 2026-05-06 15:54 | -0.62130 | 17.84648 | 12789 ft | 212 kts | 25° |
| 2026-05-06 15:54 | -0.60770 | 17.85217 | 12792 ft | 212 kts | 25° |
| 2026-05-06 15:55 | -0.59425 | 17.85777 | 12794 ft | 212 kts | 25° |
| 2026-05-06 15:55 | -0.58062 | 17.86342 | 12790 ft | 212 kts | 25° |
| 2026-05-06 15:55 | -0.56696 | 17.86909 | 12795 ft | 212 kts | 25° |
| 2026-05-06 15:55 | -0.55331 | 17.87475 | 12792 ft | 213 kts | 25° |
| 2026-05-06 15:56 | -0.53966 | 17.88042 | 12790 ft | 213 kts | 25° |
| 2026-05-06 15:56 | -0.52599 | 17.88608 | 12791 ft | 213 kts | 25° |
| 2026-05-06 15:56 | -0.51233 | 17.89174 | 12795 ft | 212 kts | 25° |
| 2026-05-06 15:56 | -0.49870 | 17.89740 | 12793 ft | 212 kts | 25° |
| 2026-05-06 15:57 | -0.48505 | 17.90305 | 12791 ft | 212 kts | 25° |
| 2026-05-06 15:57 | -0.47161 | 17.90865 | 12792 ft | 212 kts | 25° |
| 2026-05-06 15:57 | -0.45797 | 17.91429 | 12796 ft | 212 kts | 25° |
| 2026-05-06 15:57 | -0.44434 | 17.91995 | 12795 ft | 212 kts | 25° |
| 2026-05-06 15:58 | -0.43069 | 17.92560 | 12796 ft | 212 kts | 25° |
| 2026-05-06 15:58 | -0.41707 | 17.93126 | 12797 ft | 212 kts | 25° |
| 2026-05-06 15:58 | -0.40344 | 17.93690 | 12794 ft | 212 kts | 25° |
| 2026-05-06 15:58 | -0.38982 | 17.94256 | 12797 ft | 212 kts | 25° |
| 2026-05-06 15:59 | -0.37621 | 17.94820 | 12800 ft | 212 kts | 25° |
| 2026-05-06 15:59 | -0.36258 | 17.95386 | 12795 ft | 212 kts | 25° |
| 2026-05-06 15:59 | -0.34912 | 17.95943 | 12797 ft | 212 kts | 25° |
| 2026-05-06 15:59 | -0.33549 | 17.96509 | 12798 ft | 212 kts | 25° |
| 2026-05-06 16:00 | -0.32186 | 17.97074 | 12801 ft | 212 kts | 26° |
| 2026-05-06 16:00 | -0.30820 | 17.97641 | 12796 ft | 212 kts | 26° |
| 2026-05-06 16:00 | -0.29454 | 17.98208 | 12804 ft | 213 kts | 25° |
| 2026-05-06 16:00 | -0.28088 | 17.98773 | 12796 ft | 213 kts | 26° |
| 2026-05-06 16:01 | -0.26722 | 17.99341 | 12798 ft | 213 kts | 26° |
| 2026-05-06 16:01 | -0.25356 | 17.99906 | 12796 ft | 212 kts | 26° |
| 2026-05-06 16:01 | -0.24009 | 18.00466 | 12794 ft | 212 kts | 26° |
| 2026-05-06 16:01 | -0.22645 | 18.01031 | 12797 ft | 212 kts | 26° |
| 2026-05-06 16:02 | -0.21280 | 18.01597 | 12797 ft | 212 kts | 26° |
| 2026-05-06 16:02 | -0.19915 | 18.02164 | 12801 ft | 212 kts | 26° |
| 2026-05-06 16:02 | -0.18551 | 18.02729 | 12796 ft | 212 kts | 26° |
| 2026-05-06 16:02 | -0.17187 | 18.03295 | 12794 ft | 212 kts | 26° |
| 2026-05-06 16:03 | -0.15822 | 18.03860 | 12796 ft | 212 kts | 26° |
| 2026-05-06 16:03 | -0.14459 | 18.04427 | 12791 ft | 212 kts | 26° |
| 2026-05-06 16:03 | -0.13113 | 18.04984 | 12794 ft | 212 kts | 26° |
| 2026-05-06 16:03 | -0.11752 | 18.05549 | 12794 ft | 212 kts | 26° |
| 2026-05-06 16:04 | -0.10380 | 18.06118 | 12632 ft | 218 kts | 26° |
| 2026-05-06 16:04 | -0.08942 | 18.06716 | 12298 ft | 228 kts | 26° |
| 2026-05-06 16:04 | -0.07452 | 18.07334 | 12006 ft | 235 kts | 26° |
| 2026-05-06 16:04 | -0.05925 | 18.07966 | 11738 ft | 240 kts | 26° |
| 2026-05-06 16:05 | -0.04371 | 18.08610 | 11474 ft | 244 kts | 26° |
| 2026-05-06 16:05 | -0.02797 | 18.09263 | 11225 ft | 246 kts | 26° |
| 2026-05-06 16:05 | -0.01208 | 18.09922 | 10987 ft | 248 kts | 26° |
| 2026-05-06 16:05 | 0.00393 | 18.10586 | 10748 ft | 250 kts | 26° |
| 2026-05-06 16:06 | 0.01980 | 18.11244 | 10497 ft | 252 kts | 26° |
| 2026-05-06 16:06 | 0.03613 | 18.11922 | 10142 ft | 258 kts | 26° |
| 2026-05-06 16:06 | 0.05292 | 18.12619 | 9751 ft | 264 kts | 26° |
| 2026-05-06 16:06 | 0.07008 | 18.13330 | 9323 ft | 269 kts | 25° |
| 2026-05-06 16:07 | 0.08753 | 18.14054 | 8902 ft | 274 kts | 25° |
| 2026-05-06 16:07 | 0.10521 | 18.14786 | 8490 ft | 277 kts | 25° |
| 2026-05-06 16:07 | 0.12311 | 18.15529 | 8082 ft | 280 kts | 24° |
| 2026-05-06 16:07 | 0.14117 | 18.16277 | 7687 ft | 282 kts | 24° |
| 2026-05-06 16:08 | 0.15934 | 18.17030 | 7311 ft | 284 kts | 24° |
| 2026-05-06 16:08 | 0.17103 | 18.17610 | 7046 ft | 283 kts | 33° |
| 2026-05-06 16:08 | 0.18917 | 18.19488 | 6493 ft | 284 kts | 60° |
| 2026-05-06 16:08 | 0.19582 | 18.21308 | 6085 ft | 284 kts | 81° |
| 2026-05-06 16:09 | 0.19577 | 18.23274 | 5657 ft | 284 kts | 101° |
| 2026-05-06 16:09 | 0.18885 | 18.25111 | 5253 ft | 283 kts | 121° |
| 2026-05-06 16:09 | 0.17601 | 18.26585 | 4869 ft | 282 kts | 142° |
| 2026-05-06 16:09 | 0.15891 | 18.27514 | 4494 ft | 280 kts | 162° |
| 2026-05-06 16:10 | 0.14000 | 18.27797 | 4094 ft | 271 kts | 180° |
| 2026-05-06 16:10 | 0.12764 | 18.27768 | 3809 ft | 266 kts | 182° |
| 2026-05-06 16:10 | 0.10900 | 18.27792 | 3201 ft | 269 kts | 176° |
| 2026-05-06 16:10 | 0.08430 | 18.28113 | 2400 ft | 271 kts | 171° |
| 2026-05-06 16:11 | 0.06566 | 18.28383 | 1861 ft | 269 kts | 173° |
| 2026-05-06 16:11 | 0.04802 | 18.28579 | 1975 ft | 243 kts | 174° |
| 2026-05-06 16:11 | 0.03183 | 18.28762 | 1998 ft | 226 kts | 174° |
| 2026-05-06 16:11 | 0.01669 | 18.28946 | 1998 ft | 213 kts | 174° |
| 2026-05-06 16:12 | 0.00711 | 18.29064 | 2000 ft | 207 kts | 174° |
| 2026-05-06 16:12 | -0.00674 | 18.29240 | 1993 ft | 193 kts | 171° |
| 2026-05-06 16:12 | -0.01781 | 18.29897 | 1946 ft | 187 kts | 127° |
| 2026-05-06 16:12 | -0.01891 | 18.31456 | 1970 ft | 171 kts | 61° |
| 2026-05-06 16:13 | -0.00990 | 18.32121 | 1977 ft | 161 kts | 8° |
| 2026-05-06 16:13 | 0.00072 | 18.32193 | 1995 ft | 149 kts | 7° |
| 2026-05-06 16:13 | 0.00733 | 18.32292 | 1999 ft | 141 kts | 9° |
| 2026-05-06 16:13 | 0.01695 | 18.32413 | 2012 ft | 139 kts | 7° |
| 2026-05-06 16:14 | 0.02677 | 18.32536 | 2045 ft | 148 kts | 7° |
| 2026-05-06 16:14 | 0.03707 | 18.32673 | 2142 ft | 148 kts | 7° |
| 2026-05-06 16:14 | 0.04750 | 18.32804 | 2136 ft | 155 kts | 6° |
| 2026-05-06 16:14 | 0.05827 | 18.32952 | 2066 ft | 156 kts | 8° |
| 2026-05-06 16:15 | 0.06875 | 18.32938 | 1950 ft | 150 kts | 340° |
| 2026-05-06 16:15 | 0.07624 | 18.32291 | 1762 ft | 144 kts | 293° |
| 2026-05-06 16:15 | 0.07734 | 18.31356 | 1696 ft | 127 kts | 258° |
| 2026-05-06 16:15 | 0.07549 | 18.30520 | 1666 ft | 121 kts | 253° |
| 2026-05-06 16:16 | 0.07251 | 18.29743 | 1600 ft | 121 kts | 242° |
| 2026-05-06 16:16 | 0.06734 | 18.29079 | 1545 ft | 121 kts | 223° |
| 2026-05-06 16:16 | 0.06045 | 18.28620 | 1488 ft | 120 kts | 198° |
| 2026-05-06 16:16 | 0.05210 | 18.28525 | 1454 ft | 123 kts | 174° |
| 2026-05-06 16:17 | 0.04359 | 18.28628 | 1319 ft | 123 kts | 173° |
| 2026-05-06 16:17 | 0.03498 | 18.28729 | 1115 ft | 124 kts | 173° |
| 2026-05-06 16:17 | 0.02727 | 18.28818 | 1049 ft | 96 kts | 173° |
| 2026-05-06 16:17 | 0.02294 | 18.28869 | 1046 ft | 29 kts | 173° |
| 2026-05-06 16:18 | 0.02155 | 18.28889 | 1043 ft | 12 kts | 162° |
| 2026-05-06 16:18 | 0.02130 | 18.28923 | 1042 ft | 5 kts | 102° |
| 2026-05-06 16:18 | 0.02127 | 18.28953 | 1042 ft | 5 kts | 91° |
| 2026-05-06 16:18 | 0.02133 | 18.29000 | 1043 ft | 9 kts | 84° |
| 2026-05-06 16:19 | 0.02127 | 18.29042 | 1042 ft | 3 kts | 140° |
| 2026-05-06 16:19 | 0.02117 | 18.29045 | 1042 ft | 2 kts | 188° |
| 2026-05-06 16:19 | 0.02083 | 18.29044 | 1042 ft | 5 kts | 174° |
| 2026-05-06 16:19 | 0.02079 | 18.29044 | 1041 ft | 0 kts | 174° |